createdAt,value
2022-11-05T00:00:46.987Z,99306.34
2022-11-05T00:03:33.045Z,99299.69
2022-11-05T00:06:18.469Z,99298.25
2022-11-05T00:09:04.514Z,99294.66
2022-11-05T00:11:52.804Z,99295.06
2022-11-05T00:14:39.405Z,99297.72
2022-11-05T00:17:07.849Z,99300.31
2022-11-05T00:19:37.797Z,99305.75
2022-11-05T00:22:23.589Z,99302.53
2022-11-05T00:25:09.678Z,99296.50
2022-11-05T00:27:41.608Z,99301.56
2022-11-05T00:30:13.472Z,99300.56
2022-11-05T00:32:43.372Z,99303.97
2022-11-05T00:35:16.646Z,99305.56
2022-11-05T00:37:50.110Z,99304.97
2022-11-05T00:40:21.010Z,99315.44
2022-11-05T00:43:10.645Z,99314.84
2022-11-05T00:45:40.463Z,99322.88
2022-11-05T00:48:26.658Z,99320.06
2022-11-05T00:50:58.068Z,99322.47
2022-11-05T00:53:28.160Z,99326.09
2022-11-05T00:55:57.244Z,99336.34
2022-11-05T00:58:30.058Z,99333.34
2022-11-05T01:01:01.683Z,99337.78
2022-11-05T01:03:32.846Z,99332.72
2022-11-05T01:06:08.207Z,99330.31
2022-11-05T01:08:40.321Z,99329.50
2022-11-05T01:11:35.499Z,99334.31
2022-11-05T01:14:07.941Z,99337.94
2022-11-05T01:16:37.220Z,99344.19
2022-11-05T01:19:07.943Z,99346.41
2022-11-05T01:21:37.274Z,99348.84
2022-11-05T01:24:10.354Z,99344.41
2022-11-05T01:26:40.719Z,99342.19
2022-11-05T01:29:14.614Z,99351.44
2022-11-05T01:31:44.493Z,99350.88
2022-11-05T01:34:15.225Z,99349.84
2022-11-05T01:36:46.147Z,99342.22
2022-11-05T01:39:16.544Z,99355.91
2022-11-05T01:41:50.394Z,99357.28
2022-11-05T01:44:43.829Z,99360.72
2022-11-05T01:47:21.866Z,99361.72
2022-11-05T01:49:52.980Z,99354.88
2022-11-05T01:52:30.280Z,99356.28
2022-11-05T01:54:59.540Z,99358.72
2022-11-05T01:57:30.271Z,99358.91
2022-11-05T02:00:01.608Z,99367.75
2022-11-05T02:02:35.661Z,99366.56
2022-11-05T02:05:06.593Z,99367.97
2022-11-05T02:07:37.718Z,99375.59
2022-11-05T02:10:09.985Z,99380.03
2022-11-05T02:12:41.610Z,99372.97
2022-11-05T02:15:43.794Z,99375.59
2022-11-05T02:18:23.591Z,99372.38
2022-11-05T02:20:57.044Z,99369.34
2022-11-05T02:23:50.234Z,99378.59
2022-11-05T02:26:30.554Z,99381.63
2022-11-05T02:29:23.018Z,99384.84
2022-11-05T02:31:58.449Z,99382.22
2022-11-05T02:34:29.869Z,99381.81
2022-11-05T02:37:01.755Z,99384.84
2022-11-05T02:39:38.495Z,99382.03
2022-11-05T02:42:14.728Z,99388.28
2022-11-05T02:44:49.152Z,99387.88
2022-11-05T02:47:25.953Z,99395.28
2022-11-05T02:49:59.453Z,99399.31
2022-11-05T02:58:22.290Z,99398.94
2022-11-05T03:00:54.607Z,99408.59
2022-11-05T03:03:30.552Z,99413.22
2022-11-05T03:06:19.013Z,99414.81
2022-11-05T03:08:59.771Z,99410.41
2022-11-05T03:11:30.542Z,99416.63
2022-11-05T03:14:03.567Z,99419.41
2022-11-05T03:16:39.722Z,99417.63
2022-11-05T03:19:13.691Z,99408.19
2022-11-05T03:21:46.307Z,99409.59
2022-11-05T03:24:23.964Z,99414.22
2022-11-05T03:26:57.731Z,99414.81
2022-11-05T03:29:28.853Z,99421.66
2022-11-05T03:32:04.371Z,99423.03
2022-11-05T03:34:39.989Z,99428.91
2022-11-05T03:37:13.500Z,99431.53
2022-11-05T03:39:47.120Z,99438.19
2022-11-05T03:42:20.323Z,99439.78
2022-11-05T03:44:52.166Z,99441.59
2022-11-05T03:47:23.140Z,99438.75
2022-11-05T03:49:59.784Z,99439.59
2022-11-05T03:52:31.048Z,99445.19
2022-11-05T03:55:01.551Z,99446.19
2022-11-05T03:57:32.308Z,99448.78
2022-11-05T04:00:04.543Z,99452.63
2022-11-05T04:02:34.651Z,99461.25
2022-11-05T04:05:05.661Z,99461.72
2022-11-05T04:07:51.723Z,99464.72
2022-11-05T04:10:38.123Z,99478.97
2022-11-05T04:13:24.127Z,99471.72
2022-11-05T04:16:10.057Z,99478.19
2022-11-05T04:18:40.018Z,99472.09
2022-11-05T04:21:29.348Z,99467.28
2022-11-05T04:24:12.691Z,99476.50
2022-11-05T04:26:43.732Z,99462.69
2022-11-05T04:29:29.966Z,99464.09
2022-11-05T04:32:02.938Z,99465.31
2022-11-05T04:34:33.758Z,99463.72
2022-11-05T04:37:04.197Z,99467.34
2022-11-05T04:39:34.176Z,99473.59
2022-11-05T04:42:04.644Z,99470.59
2022-11-05T04:44:35.669Z,99470.38
2022-11-05T04:47:05.018Z,99477.63
2022-11-05T04:49:34.514Z,99474.22
2022-11-05T04:52:05.740Z,99478.41
2022-11-05T04:54:34.785Z,99480.81
2022-11-05T04:57:05.019Z,99484.41
2022-11-05T04:59:33.451Z,99477.56
2022-11-05T05:02:04.207Z,99482.84
2022-11-05T05:04:34.667Z,99485.44
2022-11-05T05:07:07.072Z,99485.66
2022-11-05T05:09:37.960Z,99489.88
2022-11-05T05:12:09.101Z,99493.69
2022-11-05T05:14:41.235Z,99495.72
2022-11-05T05:17:10.019Z,99498.53
2022-11-05T05:19:52.106Z,99496.72
2022-11-05T05:25:11.631Z,99499.53
2022-11-05T05:27:42.300Z,99506.41
2022-11-05T05:30:12.169Z,99519.09
2022-11-05T05:32:42.480Z,99518.72
2022-11-05T05:35:11.248Z,99515.31
2022-11-05T05:37:42.099Z,99521.53
2022-11-05T05:40:12.272Z,99526.19
2022-11-05T05:42:43.419Z,99520.94
2022-11-05T05:45:13.990Z,99527.97
2022-11-05T05:47:42.671Z,99529.78
2022-11-05T05:50:11.345Z,99534.22
2022-11-05T05:52:41.639Z,99496.53
2022-11-05T05:55:12.991Z,99535.16
2022-11-05T05:57:41.164Z,99548.72
2022-11-05T06:00:10.611Z,99545.47
2022-11-05T06:02:38.968Z,99552.72
2022-11-05T06:05:08.451Z,99541.66
2022-11-05T06:07:38.903Z,99555.97
2022-11-05T06:10:14.383Z,99549.94
2022-11-05T06:12:45.761Z,99544.91
2022-11-05T06:15:14.493Z,99541.66
2022-11-05T06:17:44.880Z,99545.28
2022-11-05T06:20:13.439Z,99551.75
2022-11-05T06:22:42.570Z,99560.44
2022-11-05T06:25:15.743Z,99560.22
2022-11-05T06:27:47.097Z,99560.22
2022-11-05T06:30:17.765Z,99558.81
2022-11-05T06:32:48.055Z,99549.97
2022-11-05T06:35:17.811Z,99556.81
2022-11-05T06:37:48.511Z,99560.44
2022-11-05T06:40:19.691Z,99555.59
2022-11-05T06:42:48.289Z,99556.38
2022-11-05T06:45:18.438Z,99563.25
2022-11-05T06:47:49.205Z,99566.88
2022-11-05T06:50:18.326Z,99567.28
2022-11-05T06:52:48.848Z,99568.28
2022-11-05T06:55:19.339Z,99579.75
2022-11-05T07:03:24.819Z,99586.22
2022-11-05T07:08:52.986Z,99595.09
2022-11-05T07:17:13.336Z,99597.09
2022-11-05T07:19:48.618Z,99600.72
2022-11-05T07:22:19.472Z,99603.53
2022-11-05T07:24:50.189Z,99600.09
2022-11-05T07:27:20.783Z,99602.53
2022-11-05T07:29:49.697Z,99619.25
2022-11-05T07:32:22.038Z,99613.19
2022-11-05T07:34:51.089Z,99610.97
2022-11-05T07:37:20.774Z,99614.22
2022-11-05T07:39:50.958Z,99623.91
2022-11-05T07:42:19.328Z,99619.84
2022-11-05T07:44:47.823Z,99623.69
2022-11-05T07:47:17.439Z,99630.94
2022-11-05T07:49:48.112Z,99633.97
2022-11-05T07:52:19.623Z,99627.94
2022-11-05T07:54:52.147Z,99628.34
2022-11-05T07:57:22.531Z,99626.53
2022-11-05T07:59:50.809Z,99634.78
2022-11-05T08:02:20.110Z,99639.19
2022-11-05T08:04:51.531Z,99642.66
2022-11-05T08:07:21.350Z,99644.25
2022-11-05T08:09:50.091Z,99643.03
2022-11-05T08:12:19.431Z,99639.63
2022-11-05T08:14:48.475Z,99644.03
2022-11-05T08:17:18.599Z,99637.38
2022-11-05T08:19:46.988Z,99633.34
2022-11-05T08:22:16.743Z,99638.19
2022-11-05T08:24:45.314Z,99648.88
2022-11-05T08:27:14.216Z,99640.00
2022-11-05T08:29:43.069Z,99642.22
2022-11-05T08:32:12.778Z,99653.91
2022-11-05T08:34:42.533Z,99651.28
2022-11-05T08:37:12.091Z,99650.06
2022-11-05T08:39:42.304Z,99651.50
2022-11-05T08:42:11.040Z,99655.94
2022-11-05T08:44:39.898Z,99659.56
2022-11-05T08:47:08.755Z,99660.16
2022-11-05T08:49:37.494Z,99664.81
2022-11-05T08:52:06.494Z,99658.59
2022-11-05T08:54:35.524Z,99651.72
2022-11-05T08:57:05.733Z,99655.09
2022-11-05T08:59:34.953Z,99651.50
2022-11-05T09:02:04.261Z,99645.06
2022-11-05T09:04:33.203Z,99647.06
2022-11-05T09:07:01.377Z,99647.06
2022-11-05T09:09:30.384Z,99651.91
2022-11-05T09:12:12.267Z,99651.69
2022-11-05T09:14:43.905Z,99651.09
2022-11-05T09:17:17.596Z,99654.69
2022-11-05T09:19:46.169Z,99654.69
2022-11-05T09:22:14.860Z,99655.94
2022-11-05T09:24:44.132Z,99662.19
2022-11-05T09:27:13.777Z,99651.91
2022-11-05T09:29:44.321Z,99655.13
2022-11-05T09:32:13.404Z,99655.75
2022-11-05T09:34:44.900Z,99659.34
2022-11-05T09:37:13.940Z,99652.53
2022-11-05T09:39:42.677Z,99665.22
2022-11-05T09:42:12.210Z,99662.81
2022-11-05T09:44:44.860Z,99662.19
2022-11-05T09:47:18.616Z,99655.72
2022-11-05T09:49:50.342Z,99673.28
2022-11-05T09:52:21.476Z,99661.19
2022-11-05T09:54:50.673Z,99674.91
2022-11-05T09:57:22.183Z,99672.28
2022-11-05T09:59:52.770Z,99672.47
2022-11-05T10:02:24.827Z,99675.69
2022-11-05T10:04:54.287Z,99675.91
2022-11-05T10:07:25.392Z,99685.16
2022-11-05T10:09:56.554Z,99689.41
2022-11-05T10:12:28.204Z,99693.66
2022-11-05T10:15:00.695Z,99693.06
2022-11-05T10:17:37.892Z,99693.44
2022-11-05T10:20:11.747Z,99694.06
2022-11-05T10:22:43.876Z,99693.03
2022-11-05T10:25:18.435Z,99692.25
2022-11-05T10:27:51.155Z,99694.44
2022-11-05T10:30:19.867Z,99688.38
2022-11-05T10:32:50.649Z,99693.00
2022-11-05T10:35:22.848Z,99686.53
2022-11-05T10:37:51.606Z,99694.44
2022-11-05T10:40:24.420Z,99683.13
2022-11-05T10:42:58.903Z,99686.56
2022-11-05T10:45:32.549Z,99688.97
2022-11-05T10:48:07.045Z,99692.81
2022-11-05T10:50:35.834Z,99686.94
2022-11-05T10:53:08.623Z,99685.75
2022-11-05T10:55:38.519Z,99692.41
2022-11-05T10:58:11.526Z,99692.63
2022-11-05T11:00:40.546Z,99693.22
2022-11-05T11:03:30.899Z,99707.34
2022-11-05T11:06:03.629Z,99704.34
2022-11-05T11:08:32.939Z,99706.97
2022-11-05T11:11:05.114Z,99706.75
2022-11-05T11:13:50.914Z,99721.09
2022-11-05T11:16:21.776Z,99715.03
2022-11-05T11:18:54.532Z,99710.78
2022-11-05T11:21:25.191Z,99710.78
2022-11-05T11:23:57.435Z,99705.34
2022-11-05T11:26:26.461Z,99715.63
2022-11-05T11:28:57.775Z,99716.84
2022-11-05T11:31:28.095Z,99718.25
2022-11-05T11:34:01.826Z,99729.75
2022-11-05T11:36:35.470Z,99731.97
2022-11-05T11:39:06.165Z,99735.16
2022-11-05T11:41:37.354Z,99730.50
2022-11-05T11:44:08.838Z,99731.50
2022-11-05T11:46:37.928Z,99736.38
2022-11-05T11:49:08.563Z,99727.91
2022-11-05T11:51:40.906Z,99724.91
2022-11-05T11:54:21.061Z,99725.28
2022-11-05T11:56:50.069Z,99731.16
2022-11-05T11:59:46.915Z,99726.72
2022-11-05T12:02:40.387Z,99729.53
2022-11-05T12:05:18.335Z,99731.75
2022-11-05T12:07:52.351Z,99738.81
2022-11-05T12:10:26.366Z,99740.22
2022-11-05T12:13:01.034Z,99739.00
2022-11-05T12:15:38.479Z,99736.56
2022-11-05T12:18:07.447Z,99743.19
2022-11-05T12:20:41.597Z,99746.03
2022-11-05T12:23:31.632Z,99735.16
2022-11-05T12:26:06.137Z,99738.81
2022-11-05T12:29:17.351Z,99735.78
2022-11-05T12:31:45.002Z,99739.22
2022-11-05T12:34:21.888Z,99730.75
2022-11-05T12:37:04.409Z,99741.44
2022-11-05T12:39:51.737Z,99745.66
2022-11-05T12:42:29.441Z,99748.69
2022-11-05T12:45:01.725Z,99752.91
2022-11-05T12:47:48.511Z,99747.25
2022-11-05T12:50:20.103Z,99750.09
2022-11-05T12:53:05.751Z,99747.06
2022-11-05T12:55:41.723Z,99751.09
2022-11-05T12:58:15.413Z,99757.56
2022-11-05T13:00:48.303Z,99756.34
2022-11-05T13:03:22.220Z,99761.56
2022-11-05T13:05:53.494Z,99757.91
2022-11-05T13:08:26.421Z,99761.50
2022-11-05T13:10:58.030Z,99755.03
2022-11-05T13:13:31.250Z,99755.44
2022-11-05T13:16:03.670Z,99750.59
2022-11-05T13:18:37.222Z,99755.41
2022-11-05T13:21:07.905Z,99758.25
2022-11-05T13:23:42.600Z,99761.25
2022-11-05T13:26:19.579Z,99765.28
2022-11-05T13:28:51.725Z,99770.31
2022-11-05T13:31:22.426Z,99766.25
2022-11-05T13:33:53.805Z,99770.25
2022-11-05T13:36:41.811Z,99775.84
2022-11-05T13:39:17.419Z,99775.63
2022-11-05T13:41:51.499Z,99786.00
2022-11-05T13:44:26.451Z,99782.63
2022-11-05T13:47:04.925Z,99794.09
2022-11-05T13:49:45.803Z,99797.50
2022-11-05T13:52:24.197Z,99798.22
2022-11-05T13:55:05.855Z,99803.66
2022-11-05T13:57:55.846Z,99796.06
2022-11-05T14:00:24.963Z,99800.28
2022-11-05T14:02:56.008Z,99804.13
2022-11-05T14:05:27.214Z,99800.91
2022-11-05T14:07:56.792Z,99803.50
2022-11-05T14:10:32.816Z,99804.13
2022-11-05T14:13:03.648Z,99805.59
2022-11-05T14:15:33.886Z,99798.16
2022-11-05T14:18:03.694Z,99803.59
2022-11-05T14:20:49.659Z,99809.78
2022-11-05T14:23:45.455Z,99810.41
2022-11-05T14:26:16.900Z,99806.00
2022-11-05T14:28:47.379Z,99809.00
2022-11-05T14:31:47.436Z,99806.59
2022-11-05T14:34:21.797Z,99807.00
2022-11-05T14:37:05.239Z,99812.88
2022-11-05T14:39:34.245Z,99817.06
2022-11-05T14:42:05.471Z,99809.19
2022-11-05T14:44:35.037Z,99818.91
2022-11-05T14:47:06.207Z,99816.69
2022-11-05T14:49:37.084Z,99824.03
2022-11-05T14:52:08.501Z,99816.22
2022-11-05T14:54:39.221Z,99817.47
2022-11-05T14:57:09.012Z,99818.28
2022-11-05T15:00:01.911Z,99824.94
2022-11-05T15:02:37.955Z,99817.66
2022-11-05T15:05:27.951Z,99821.25
2022-11-05T15:07:58.680Z,99817.97
2022-11-05T15:10:31.014Z,99819.38
2022-11-05T15:13:08.372Z,99827.81
2022-11-05T15:15:43.028Z,99825.81
2022-11-05T15:18:17.501Z,99834.47
2022-11-05T15:20:46.986Z,99830.22
2022-11-05T15:23:17.841Z,99838.84
2022-11-05T15:25:53.162Z,99842.84
2022-11-05T15:28:28.148Z,99836.38
2022-11-05T15:31:00.696Z,99839.78
2022-11-05T15:33:30.284Z,99843.19
2022-11-05T15:36:10.824Z,99845.63
2022-11-05T15:38:40.244Z,99846.81
2022-11-05T15:41:16.583Z,99846.81
2022-11-05T15:43:50.067Z,99844.63
2022-11-05T15:46:20.718Z,99851.25
2022-11-05T15:48:53.096Z,99852.66
2022-11-05T15:51:23.306Z,99849.66
2022-11-05T15:56:50.586Z,99847.22
2022-11-05T15:59:22.883Z,99845.50
2022-11-05T16:01:54.054Z,99843.34
2022-11-05T16:04:26.422Z,99840.09
2022-11-05T16:06:55.921Z,99841.72
2022-11-05T16:09:25.956Z,99852.34
2022-11-05T16:12:15.714Z,99856.63
2022-11-05T16:14:46.972Z,99841.50
2022-11-05T16:17:21.101Z,99849.75
2022-11-05T16:19:49.950Z,99847.88
2022-11-05T16:22:22.058Z,99847.50
2022-11-05T16:24:51.483Z,99852.91
2022-11-05T16:27:21.426Z,99853.88
2022-11-05T16:29:54.682Z,99860.25
2022-11-05T16:32:31.071Z,99859.72
2022-11-05T16:35:02.085Z,99864.75
2022-11-05T16:37:37.997Z,99858.91
2022-11-05T16:40:12.672Z,99858.38
2022-11-05T16:42:42.725Z,99863.75
2022-11-05T16:45:15.311Z,99855.75
2022-11-05T16:47:44.117Z,99855.88
2022-11-05T16:50:17.412Z,99849.19
2022-11-05T16:52:45.921Z,99859.38
2022-11-05T16:55:14.502Z,99865.03
2022-11-05T16:57:43.947Z,99857.47
2022-11-05T17:00:15.801Z,99863.00
2022-11-05T17:02:44.854Z,99870.00
2022-11-05T17:05:18.368Z,99865.13
2022-11-05T17:07:48.044Z,99876.59
2022-11-05T17:10:17.185Z,99865.63
2022-11-05T17:12:48.513Z,99868.66
2022-11-05T17:15:20.529Z,99864.22
2022-11-05T17:17:49.317Z,99871.50
2022-11-05T17:20:24.412Z,99871.91
2022-11-05T17:22:53.176Z,99872.34
2022-11-05T17:25:21.723Z,99877.59
2022-11-05T17:27:50.112Z,99868.88
2022-11-05T17:30:21.095Z,99861.41
2022-11-05T17:32:49.706Z,99870.28
2022-11-05T17:35:19.162Z,99869.88
2022-11-05T17:37:47.882Z,99874.47
2022-11-05T17:40:17.949Z,99871.50
2022-11-05T17:42:46.629Z,99881.06
2022-11-05T17:45:16.168Z,99874.63
2022-11-05T17:47:46.259Z,99872.75
2022-11-05T17:50:16.058Z,99882.16
2022-11-05T17:52:44.817Z,99879.41
2022-11-05T17:55:18.692Z,99877.00
2022-11-05T17:57:48.426Z,99881.28
2022-11-05T18:00:18.409Z,99888.34
2022-11-05T18:02:50.102Z,99879.63
2022-11-05T18:05:19.292Z,99879.56
2022-11-05T18:07:48.642Z,99884.78
2022-11-05T18:10:17.369Z,99891.28
2022-11-05T18:12:45.795Z,99890.75
2022-11-05T18:15:15.381Z,99881.69
2022-11-05T18:20:31.329Z,99886.00
2022-11-05T18:23:00.236Z,99882.81
2022-11-05T18:25:29.144Z,99888.28
2022-11-05T18:27:58.539Z,99884.69
2022-11-05T18:30:27.744Z,99885.84
2022-11-05T18:32:56.055Z,99898.28
2022-11-05T18:35:24.994Z,99891.19
2022-11-05T18:37:56.429Z,99892.44
2022-11-05T18:40:25.557Z,99891.44
2022-11-05T18:42:53.929Z,99892.59
2022-11-05T18:45:26.881Z,99886.56
2022-11-05T18:47:58.111Z,99895.66
2022-11-05T18:50:26.966Z,99899.91
2022-11-05T18:52:57.748Z,99890.25
2022-11-05T18:55:27.286Z,99884.53
2022-11-05T18:57:56.003Z,99875.94
2022-11-05T19:00:24.329Z,99887.88
2022-11-05T19:02:53.299Z,99888.75
2022-11-05T19:05:28.943Z,99896.88
2022-11-05T19:07:59.621Z,99902.47
2022-11-05T19:10:28.860Z,99901.91
2022-11-05T19:12:57.665Z,99897.16
2022-11-05T19:15:26.884Z,99901.38
2022-11-05T19:17:55.267Z,99907.63
2022-11-05T19:20:24.464Z,99906.13
2022-11-05T19:22:53.556Z,99911.63
2022-11-05T19:25:23.808Z,99916.44
2022-11-05T19:27:52.624Z,99918.66
2022-11-05T19:30:21.665Z,99912.69
2022-11-05T19:32:50.335Z,99921.25
2022-11-05T19:35:19.315Z,99926.41
2022-11-05T19:37:48.524Z,99920.63
2022-11-05T19:40:17.365Z,99928.28
2022-11-05T19:42:48.319Z,99921.63
2022-11-05T19:45:43.086Z,99928.06
2022-11-05T19:48:06.243Z,99932.19
2022-11-05T19:50:35.058Z,99926.16
2022-11-05T19:53:03.550Z,99930.03
2022-11-05T19:55:31.927Z,99939.50
2022-11-05T19:58:02.439Z,99935.78
2022-11-05T20:00:30.362Z,99930.19
2022-11-05T20:02:58.649Z,99939.97
2022-11-05T20:05:27.084Z,99940.53
2022-11-05T20:07:55.512Z,99936.06
2022-11-05T20:10:24.407Z,99940.09
2022-11-05T20:12:53.150Z,99939.88
2022-11-05T20:15:22.924Z,99940.25
2022-11-05T20:17:52.589Z,99942.19
2022-11-05T20:20:21.681Z,99936.78
2022-11-05T20:22:49.997Z,99947.81
2022-11-05T20:25:18.676Z,99940.78
2022-11-05T20:27:47.093Z,99944.44
2022-11-05T20:30:15.365Z,99942.91
2022-11-05T20:32:45.653Z,99943.81
2022-11-05T20:35:14.221Z,99939.31
2022-11-05T20:37:42.422Z,99938.16
2022-11-05T20:40:11.936Z,99939.72
2022-11-05T20:42:41.093Z,99938.91
2022-11-05T20:45:10.242Z,99941.97
2022-11-05T20:47:39.702Z,99939.78
2022-11-05T20:50:11.210Z,99937.00
2022-11-05T20:52:39.963Z,99937.06
2022-11-05T20:55:09.777Z,99946.78
2022-11-05T20:57:39.083Z,99943.75
2022-11-05T21:00:08.681Z,99942.25
2022-11-05T21:02:37.196Z,99944.06
2022-11-05T21:05:08.494Z,99936.78
2022-11-05T21:07:38.659Z,99937.28
2022-11-05T21:10:07.151Z,99943.94
2022-11-05T21:12:35.296Z,99934.63
2022-11-05T21:15:03.482Z,99935.56
2022-11-05T21:17:33.989Z,99938.59
2022-11-05T21:20:02.363Z,99938.63
2022-11-05T21:22:32.653Z,99930.28
2022-11-05T21:25:02.958Z,99932.41
2022-11-05T21:27:31.545Z,99924.63
2022-11-05T21:30:00.713Z,99926.66
2022-11-05T21:32:29.036Z,99940.84
2022-11-05T21:34:57.578Z,99939.91
2022-11-05T21:37:28.049Z,99949.63
2022-11-05T21:39:57.333Z,99948.84
2022-11-05T21:42:27.652Z,99955.81
2022-11-05T21:45:00.239Z,99960.63
2022-11-05T21:47:29.476Z,99950.97
2022-11-05T21:49:57.773Z,99949.97
2022-11-05T21:52:43.545Z,99951.09
2022-11-05T21:55:30.550Z,99959.50
2022-11-05T21:58:21.981Z,99957.25
2022-11-05T22:00:51.101Z,99961.44
2022-11-05T22:03:19.957Z,99961.28
2022-11-05T22:05:48.163Z,99963.41
2022-11-05T22:08:17.149Z,99968.34
2022-11-05T22:10:45.596Z,99956.84
2022-11-05T22:13:16.250Z,99955.66
2022-11-05T22:15:44.739Z,99953.66
2022-11-05T22:18:13.469Z,99954.03
2022-11-05T22:20:42.741Z,99957.28
2022-11-05T22:23:11.505Z,99953.59
2022-11-05T22:25:40.672Z,99952.88
2022-11-05T22:28:10.857Z,99956.06
2022-11-05T22:30:41.751Z,99970.56
2022-11-05T22:38:59.519Z,99974.97
2022-11-05T22:41:27.704Z,99980.84
2022-11-05T22:43:56.737Z,99977.69
2022-11-05T22:46:27.223Z,99982.84
2022-11-05T22:48:56.748Z,99991.47
2022-11-05T22:51:26.785Z,99954.00
2022-11-05T22:53:56.443Z,99991.84
2022-11-05T22:56:26.544Z,99985.63
2022-11-05T22:58:54.666Z,99987.59
2022-11-05T23:01:24.129Z,99988.31
2022-11-05T23:03:55.044Z,99989.38
2022-11-05T23:06:41.857Z,99993.81
2022-11-05T23:09:31.701Z,99999.75
2022-11-05T23:12:00.216Z,99996.44
2022-11-05T23:14:40.353Z,99996.34
2022-11-05T23:17:26.220Z,100006.16
2022-11-05T23:20:14.030Z,99994.09
2022-11-05T23:22:59.986Z,99994.00
2022-11-05T23:25:28.901Z,99990.75
2022-11-05T23:27:57.409Z,99983.28
2022-11-05T23:30:27.813Z,99985.19
2022-11-05T23:32:56.268Z,99981.22
2022-11-05T23:35:40.281Z,99987.97
2022-11-05T23:38:26.596Z,99986.31
2022-11-05T23:41:13.139Z,99989.63
2022-11-05T23:44:04.944Z,99981.00
2022-11-05T23:46:51.272Z,99975.66
2022-11-05T23:49:20.407Z,99983.56
2022-11-05T23:51:50.291Z,99987.63
2022-11-05T23:54:19.025Z,99971.94
2022-11-05T23:56:47.313Z,99984.47
2022-11-05T23:59:15.891Z,99986.44
